Princimar Hope — V7VN3 — position and weather

sailwx.info

Track history (hours):
 
Tides and Currents Weather Stations Pressure Air Temp Water Temp Dewpoint Dewpoint Depression Visibility Wind Speed Wind Dir Waves Ship Positions

Princimar Hope

Last reported at 2017-Oct-16 03:10 UTC. Time now 2017-Oct-17 20:45 UTC.
Position N 48°19' W 005°55'.

Length 274 m; draft 9 m.

Type: Ship. MMSI: 538004163.

Date/timePositionNaut miles runAvg speedWind from/ knotsBaromVisibWave heightAir tempDewpointWater temp
2017-Oct-16 03:10N 48°19' W 005°55'1411.5
2017-Oct-16 01:54N 48°34' W 005°56'511.3
2017-Oct-16 01:30N 48°38' W 005°56'510.9
2017-Oct-16 01:00N 48°44' W 005°55'1010.6
2017-Oct-16 00:06N 48°52' W 005°49'2411.8
2017-Oct-15 22:06N 49°06' W 005°19'312.4
2017-Oct-15 21:51N 49°07' W 005°15'512.4
2017-Oct-15 21:29N 49°09' W 005°09'1112.9
2017-Oct-15 20:36N 49°15' W 004°54'313.2
2017-Oct-15 20:22N 49°16' W 004°50'813.3
2017-Oct-15 19:46N 49°21' W 004°40'413.5
2017-Oct-15 19:30N 49°22' W 004°35'3513.0
2017-Oct-15 16:49N 49°40' W 003°48'412.4
2017-Oct-15 16:30N 49°42' W 003°43'612.0
2017-Oct-15 16:00N 49°45' W 003°35'611.9
2017-Oct-15 15:30N 49°48' W 003°27'812.0
2017-Oct-15 14:53N 49°52' W 003°17'1112.1
2017-Oct-15 14:00N 49°57' W 003°02'612.5
2017-Oct-15 13:30N 49°60' W 002°54'612.9
2017-Oct-15 13:00N 50°01' W 002°44'1513.7
2017-Oct-15 11:56N 50°05' W 002°22'1514.8
2017-Oct-15 10:55N 50°09' W 001°59'615.3
2017-Oct-15 10:30N 50°11' W 001°50'1915.2
2017-Oct-15 09:16N 50°16' W 001°22'414.9
2017-Oct-15 09:00N 50°17' W 001°16'714.5
2017-Oct-15 08:30N 50°19' W 001°05'713.7
2017-Oct-15 07:58N 50°21' W 000°54'1112.7
2017-Oct-15 07:08N 50°24' W 000°38'111.0
2017-Oct-15 07:00N 50°25' W 000°36'610.5
2017-Oct-15 06:27N 50°26' W 000°27'510.4
2017-Oct-15 06:00N 50°27' W 000°20'510.4
2017-Oct-15 05:30N 50°28' W 000°12'510.4
2017-Oct-15 05:00N 50°29' W 000°04'510.4
2017-Oct-15 04:30N 50°31' E 000°04'510.6
2017-Oct-15 04:00N 50°32' E 000°12'510.8
2017-Oct-15 03:30N 50°33' E 000°20'611.4
2017-Oct-15 03:00N 50°35' E 000°29'611.8
2017-Oct-15 02:30N 50°37' E 000°37'612.3
2017-Oct-15 02:00N 50°40' E 000°46'612.8
2017-Oct-15 01:30N 50°44' E 000°54'713.1
2017-Oct-15 01:00N 50°47' E 001°03'613.0
2017-Oct-15 00:30N 50°51' E 001°12'612.7
2017-Oct-15 00:00N 50°55' E 001°19'612.6
2017-Oct-14 23:30N 51°00' E 001°25'1211.9
2017-Oct-14 22:30N 51°09' E 001°38'611.1
2017-Oct-14 22:00N 51°13' E 001°45'510.8
2017-Oct-14 21:31N 51°17' E 001°50'510.7
2017-Oct-14 21:00N 51°21' E 001°54'510.8
2017-Oct-14 20:30N 51°26' E 001°58'510.9
2017-Oct-14 20:00N 51°31' E 002°03'611.1
2017-Oct-14 19:30N 51°35' E 002°09'611.4
2017-Oct-14 19:00N 51°39' E 002°15'611.7
2017-Oct-14 18:30N 51°44' E 002°21'1812.4
2017-Oct-14 17:03N 51°57' E 002°40'812.9
2017-Oct-14 16:24N 52°04' E 002°49'612.9
2017-Oct-14 15:57N 52°08' E 002°55'2512.5
2017-Oct-14 13:56N 52°28' E 003°19'612.2
2017-Oct-14 13:27N 52°33' E 003°25'511.9
2017-Oct-14 12:59N 52°37' E 003°31'611.1
2017-Oct-14 12:26N 52°42' E 003°37'510.9
2017-Oct-14 11:57N 52°46' E 003°43'710.7
2017-Oct-14 11:21N 52°51' E 003°49'610.6
2017-Oct-14 10:49N 52°56' E 003°55'3310.6
2017-Oct-14 07:40N 53°21' E 004°32'211.7
2017-Oct-14 07:30N 53°23' E 004°33'611.6
2017-Oct-14 06:59N 53°28' E 004°36'612.0
2017-Oct-14 06:30N 53°30' E 004°46'612.0
2017-Oct-14 06:00N 53°32' E 004°55'611.9
2017-Oct-14 05:28N 53°35' E 005°05'3710.8
2017-Oct-14 02:02N 53°46' E 006°04'1 9.9
2017-Oct-14 01:58N 53°47' E 006°05'5 9.9
2017-Oct-14 01:27N 53°48' E 006°13'6 9.8
2017-Oct-14 00:50N 53°50' E 006°23'6510.5
2017-Oct-13 18:38N 53°45' E 008°13'213.3
2017-Oct-13 18:30N 53°44' E 008°15'612.7
2017-Oct-13 18:00N 53°40' E 008°23'611.6
2017-Oct-13 17:30N 53°36' E 008°31'5 9.2
2017-Oct-13 17:00N 53°32' E 008°34'4 8.4
2017-Oct-13 16:30N 53°28' E 008°30'510.1
2017-Oct-13 16:00N 53°23' E 008°30'3 5.2
2017-Oct-13 15:29N 53°21' E 008°30'0 0.0
2017-Oct-13 14:59N 53°21' E 008°30'0 0.0
2017-Oct-13 14:29N 53°21' E 008°30'0 0.0
2017-Oct-13 13:56N 53°21' E 008°30'0 0.0
2017-Oct-13 13:29N 53°21' E 008°30'0 0.0
2017-Oct-13 12:59N 53°21' E 008°30'0 0.0
2017-Oct-13 12:29N 53°21' E 008°30'0 0.0
2017-Oct-13 11:59N 53°21' E 008°30'0 0.0
2017-Oct-13 11:26N 53°21' E 008°30'0 0.0
2017-Oct-13 10:59N 53°21' E 008°30'0 0.0
2017-Oct-13 10:26N 53°21' E 008°30'0 0.0
2017-Oct-13 09:59N 53°21' E 008°30'0 0.0
2017-Oct-13 09:29N 53°21' E 008°30'0 0.0
2017-Oct-13 08:59N 53°21' E 008°30'0 0.0
2017-Oct-13 08:26N 53°21' E 008°30'0 0.0
2017-Oct-13 07:56N 53°21' E 008°30'0 0.1
2017-Oct-13 07:26N 53°21' E 008°30'0 0.0
2017-Oct-13 06:56N 53°21' E 008°30'0 0.0
2017-Oct-13 06:29N 53°21' E 008°30'0 0.0
2017-Oct-13 05:56N 53°21' E 008°30'0 0.0
2017-Oct-13 05:29N 53°21' E 008°30'0 0.0
2017-Oct-13 04:50N 53°21' E 008°30'0 0.0
2017-Oct-13 04:26N 53°21' E 008°30'0 0.0
2017-Oct-13 03:59N 53°21' E 008°30'0 0.0
2017-Oct-13 03:29N 53°21' E 008°30'0 0.0
2017-Oct-13 02:53N 53°21' E 008°30'0 0.0
2017-Oct-13 02:29N 53°21' E 008°30'0 0.0
2017-Oct-13 01:56N 53°21' E 008°30'0 0.0
2017-Oct-13 01:29N 53°21' E 008°30'0 0.0
2017-Oct-13 00:56N 53°21' E 008°30'0 0.0
2017-Oct-13 00:26N 53°21' E 008°30'0 0.0
2017-Oct-12 23:59N 53°21' E 008°30'0 0.0
2017-Oct-12 23:29N 53°21' E 008°30'0 0.1
2017-Oct-12 22:59N 53°21' E 008°30'0 0.0
2017-Oct-12 22:29N 53°21' E 008°30'0 0.0
2017-Oct-12 21:56N 53°21' E 008°30'0 0.0
2017-Oct-12 21:29N 53°21' E 008°30'0 0.0
2017-Oct-12 20:59N 53°21' E 008°30'0 0.0
2017-Oct-12 20:29N 53°21' E 008°30'0 0.0
2017-Oct-12 19:59N 53°21' E 008°30'0 0.0
2017-Oct-12 19:29N 53°21' E 008°30'0 0.0
2017-Oct-12 18:59N 53°21' E 008°30'0 0.0
2017-Oct-12 18:29N 53°21' E 008°30'0 0.0
2017-Oct-12 17:59N 53°21' E 008°30'0 0.0
2017-Oct-12 17:29N 53°21' E 008°30'0 0.0
2017-Oct-12 16:59N 53°21' E 008°30'0 0.0
2017-Oct-12 16:29N 53°21' E 008°30'0 0.0
2017-Oct-12 15:59N 53°21' E 008°30'0 0.0
2017-Oct-12 15:29N 53°21' E 008°30'0 0.0
2017-Oct-12 14:59N 53°21' E 008°30'0 0.0
2017-Oct-12 14:29N 53°21' E 008°30'0 0.0
2017-Oct-12 13:59N 53°21' E 008°30'0 0.0
2017-Oct-12 13:29N 53°21' E 008°30'0 0.0
2017-Oct-12 12:59N 53°21' E 008°30'0 0.0
2017-Oct-12 12:29N 53°21' E 008°30'0 0.0
2017-Oct-12 11:59N 53°21' E 008°30'0 0.0
2017-Oct-12 11:29N 53°21' E 008°30'0 0.0
2017-Oct-12 10:59N 53°21' E 008°30'0 0.0
2017-Oct-12 10:29N 53°21' E 008°30'0 0.0
2017-Oct-12 09:59N 53°21' E 008°30'0 0.0
2017-Oct-12 09:29N 53°21' E 008°30'0 0.0
2017-Oct-12 08:59N 53°21' E 008°30'0 0.0
2017-Oct-12 08:29N 53°21' E 008°30'0 0.0
2017-Oct-12 07:59N 53°21' E 008°30'0 0.0
2017-Oct-12 07:29N 53°21' E 008°30'0 0.0
2017-Oct-12 06:59N 53°21' E 008°30'0 0.0
2017-Oct-12 06:29N 53°21' E 008°30'0 0.0
2017-Oct-12 05:59N 53°21' E 008°30'0 0.0
2017-Oct-12 05:29N 53°21' E 008°30'0 0.0
2017-Oct-12 04:58N 53°21' E 008°30'0 0.0
2017-Oct-12 04:29N 53°21' E 008°30'0 0.0
2017-Oct-12 03:58N 53°21' E 008°30'0 0.0
2017-Oct-12 03:29N 53°21' E 008°30'0 0.0
2017-Oct-12 02:59N 53°21' E 008°30'0 0.0
2017-Oct-12 02:28N 53°21' E 008°30'0 0.0
2017-Oct-12 01:58N 53°21' E 008°30'0 0.0
2017-Oct-12 01:28N 53°21' E 008°30'0 0.0
2017-Oct-12 00:58N 53°21' E 008°30'0 0.0
2017-Oct-12 00:28N 53°21' E 008°30'0 0.0
2017-Oct-11 23:58N 53°21' E 008°30'0 0.0
2017-Oct-11 23:28N 53°21' E 008°30'0 0.0
2017-Oct-11 22:58N 53°21' E 008°30'0 0.0
2017-Oct-11 22:28N 53°21' E 008°30'0 0.0
2017-Oct-11 21:58N 53°21' E 008°30'0 0.0
2017-Oct-11 21:28N 53°21' E 008°30'0 0.0
2017-Oct-11 20:58N 53°21' E 008°30'0 0.0
2017-Oct-11 20:28N 53°21' E 008°30'0 0.0
2017-Oct-11 19:58N 53°21' E 008°30'0 0.0
2017-Oct-11 19:28N 53°21' E 008°30'0 0.0
2017-Oct-11 18:58N 53°21' E 008°30'0 0.0
2017-Oct-11 18:28N 53°21' E 008°30'0 0.0
2017-Oct-11 17:58N 53°21' E 008°30'0 0.0
2017-Oct-11 17:28N 53°21' E 008°30'0 0.0
2017-Oct-11 16:58N 53°21' E 008°30'145 8.2
2017-Oct-10 23:14N 53°07' E 004°28'312.4
2017-Oct-10 23:00N 53°04' E 004°26'612.4
2017-Oct-10 22:30N 52°59' E 004°20'812.4
2017-Oct-10 21:51N 52°51' E 004°15'512.7
2017-Oct-10 21:26N 52°47' E 004°11'913.0
2017-Oct-10 20:43N 52°39' E 004°02'313.1
2017-Oct-10 20:30N 52°37' E 003°59'713.2
2017-Oct-10 20:00N 52°33' E 003°51'813.4
2017-Oct-10 19:23N 52°27' E 003°40'2413.5
2017-Oct-10 17:37N 52°06' E 003°25'213.7
2017-Oct-10 17:26N 52°03' E 003°25'913.6
2017-Oct-10 16:48N 51°54' E 003°23'514.1
2017-Oct-10 16:27N 51°50' E 003°19'612.9
2017-Oct-10 16:00N 51°44' E 003°18'612.3
2017-Oct-10 15:29N 51°38' E 003°21'612.8
2017-Oct-10 15:00N 51°33' E 003°26'10 9.7
2017-Oct-10 14:00N 51°26' E 003°37'4 7.5
2017-Oct-10 13:30N 51°28' E 003°43'1 1.0
2017-Oct-10 13:00N 51°29' E 003°42'0 0.0
2017-Oct-10 12:30N 51°29' E 003°42'0 0.0
2017-Oct-10 12:00N 51°29' E 003°42'0 0.0
2017-Oct-10 11:30N 51°29' E 003°42'0 0.0
2017-Oct-10 10:54N 51°29' E 003°42'0 0.0
2017-Oct-10 10:30N 51°29' E 003°42'0 0.0
2017-Oct-10 10:00N 51°29' E 003°42'0 0.0
2017-Oct-10 09:30N 51°29' E 003°42'0 0.0
2017-Oct-10 09:00N 51°29' E 003°42'0 0.0
2017-Oct-10 08:30N 51°29' E 003°42'0 0.0
2017-Oct-10 07:57N 51°29' E 003°42'0 0.0
2017-Oct-10 07:30N 51°29' E 003°42'0 0.0
2017-Oct-10 07:00N 51°29' E 003°42'0 0.0
2017-Oct-10 06:30N 51°29' E 003°42'0 0.0
2017-Oct-10 05:48N 51°29' E 003°42'0 0.0
2017-Oct-10 05:30N 51°29' E 003°42'0 0.0
2017-Oct-10 05:00N 51°29' E 003°42'0 0.0
2017-Oct-10 04:30N 51°29' E 003°42'0 0.0
2017-Oct-10 04:00N 51°29' E 003°42'0 0.0
2017-Oct-10 03:30N 51°29' E 003°42'0 0.0
2017-Oct-10 02:57N 51°29' E 003°42'0 0.0
2017-Oct-10 02:30N 51°29' E 003°42'0 0.0
2017-Oct-10 01:59N 51°29' E 003°42'0 0.0
2017-Oct-10 00:29N 51°29' E 003°42'0 0.0
2017-Oct-09 23:56N 51°29' E 003°42'0 0.0
2017-Oct-09 23:23N 51°29' E 003°42'0 0.0
2017-Oct-09 22:59N 51°29' E 003°42'0 0.1
2017-Oct-09 22:23N 51°29' E 003°42'0 0.1
2017-Oct-09 21:53N 51°29' E 003°42'0 0.0
2017-Oct-09 21:23N 51°29' E 003°42'0 0.0
2017-Oct-09 20:59N 51°29' E 003°42'0 0.0
2017-Oct-09 20:23N 51°29' E 003°42'0 0.0
2017-Oct-09 19:59N 51°29' E 003°42'0 0.0
2017-Oct-09 19:26N 51°29' E 003°42'0 0.0
2017-Oct-09 18:47N 51°29' E 003°42'0 0.0
2017-Oct-09 18:29N 51°29' E 003°42'0 0.0
2017-Oct-09 17:44N 51°29' E 003°42'0 0.0
2017-Oct-09 17:29N 51°29' E 003°42'0 0.0
2017-Oct-09 16:59N 51°29' E 003°42'0 0.0
2017-Oct-09 16:23N 51°29' E 003°42'0 0.0
2017-Oct-09 15:59N 51°29' E 003°42'0 0.0
2017-Oct-09 15:29N 51°29' E 003°42'0 0.0
2017-Oct-09 14:59N 51°29' E 003°42'0 0.0
2017-Oct-09 14:23N 51°29' E 003°42'0 0.0
2017-Oct-09 13:38N 51°29' E 003°42'0 0.0
2017-Oct-09 13:26N 51°29' E 003°42'0 0.0
2017-Oct-09 12:47N 51°29' E 003°42'0 0.0
2017-Oct-09 12:29N 51°29' E 003°42'0 0.0
2017-Oct-09 11:59N 51°29' E 003°42'0 0.0
2017-Oct-09 11:23N 51°29' E 003°42'0 0.0
2017-Oct-09 10:53N 51°29' E 003°42'0 0.0
2017-Oct-09 10:29N 51°29' E 003°42'0 0.0
2017-Oct-09 09:59N 51°29' E 003°42'0 0.0
2017-Oct-09 09:29N 51°29' E 003°42'0 0.0
2017-Oct-09 08:59N 51°29' E 003°42'0 0.0
2017-Oct-09 07:56N 51°29' E 003°42'0 0.0
2017-Oct-09 07:23N 51°29' E 003°42'0 0.0
2017-Oct-09 06:56N 51°29' E 003°42'0 0.0
2017-Oct-09 06:23N 51°29' E 003°42'0 0.0
2017-Oct-09 05:53N 51°29' E 003°42'0 0.0
2017-Oct-09 05:05N 51°29' E 003°42'0 0.0
2017-Oct-09 04:47N 51°29' E 003°42'0 0.0
2017-Oct-09 04:29N 51°29' E 003°42'0 0.0
2017-Oct-09 03:47N 51°29' E 003°42'0 0.0
2017-Oct-09 03:29N 51°29' E 003°42'0 0.0
2017-Oct-09 02:47N 51°29' E 003°42'0 0.0
2017-Oct-09 02:17N 51°29' E 003°42'0 0.0
2017-Oct-09 01:59N 51°29' E 003°42'0 0.0
2017-Oct-09 01:29N 51°29' E 003°42'0 0.0
2017-Oct-09 00:59N 51°29' E 003°42'0 0.0
2017-Oct-09 00:29N 51°29' E 003°42'0 0.0
2017-Oct-08 23:47N 51°29' E 003°42'0 0.0
2017-Oct-08 23:29N 51°29' E 003°42'0 0.0
2017-Oct-08 22:59N 51°29' E 003°42'0 0.0
2017-Oct-08 22:23N 51°29' E 003°42'0 0.0
2017-Oct-08 21:59N 51°29' E 003°42'0 0.0
2017-Oct-08 21:23N 51°29' E 003°42'0 0.0
2017-Oct-08 20:59N 51°29' E 003°42'0 0.0
2017-Oct-08 20:29N 51°29' E 003°42'0 0.0
2017-Oct-08 19:53N 51°29' E 003°42'0 0.0
2017-Oct-08 19:26N 51°29' E 003°42'0 0.0
2017-Oct-08 18:53N 51°29' E 003°42'0 0.0
2017-Oct-08 18:23N 51°29' E 003°42'0 0.0
2017-Oct-08 17:59N 51°29' E 003°42'0 0.0
2017-Oct-08 17:29N 51°29' E 003°42'0 0.0
2017-Oct-08 16:59N 51°29' E 003°42'0 0.0
2017-Oct-08 16:17N 51°29' E 003°42'0 0.0
2017-Oct-08 15:53N 51°29' E 003°42'0 0.0
2017-Oct-08 15:29N 51°29' E 003°42'0 0.0
2017-Oct-08 14:53N 51°29' E 003°42'0 0.0
2017-Oct-08 14:23N 51°29' E 003°42'0 0.0
2017-Oct-08 13:59N 51°29' E 003°42'0 0.0
2017-Oct-08 13:23N 51°29' E 003°42'0 0.0
2017-Oct-08 12:58N 51°29' E 003°42'0 0.0
2017-Oct-08 12:28N 51°29' E 003°42'0 0.0
2017-Oct-08 11:58N 51°29' E 003°42'0 0.0
2017-Oct-08 11:28N 51°29' E 003°42'0 0.0
2017-Oct-08 10:58N 51°29' E 003°42'0 0.0
2017-Oct-08 10:28N 51°29' E 003°42'0 0.0
2017-Oct-08 09:58N 51°29' E 003°42'0 0.0
2017-Oct-08 09:28N 51°29' E 003°42'0 0.0
2017-Oct-08 08:58N 51°29' E 003°42'0 0.0
2017-Oct-08 08:22N 51°29' E 003°42'0 0.0
2017-Oct-08 07:58N 51°29' E 003°42'0 0.0
2017-Oct-08 07:28N 51°29' E 003°42'0 0.0
2017-Oct-08 06:52N 51°29' E 003°42'0 0.0
2017-Oct-08 06:10N 51°29' E 003°42'0 0.0
2017-Oct-08 05:58N 51°29' E 003°42'0 0.0
2017-Oct-08 05:16N 51°29' E 003°42'0 0.0
2017-Oct-08 04:52N 51°29' E 003°42'0 0.0
2017-Oct-08 04:10N 51°29' E 003°42'0 0.0
2017-Oct-08 03:58N 51°29' E 003°42'0 0.0
2017-Oct-08 03:28N 51°29' E 003°42'0 0.0
2017-Oct-08 02:58N 51°29' E 003°42'0 0.0
2017-Oct-08 02:28N 51°29' E 003°42'0 0.0
2017-Oct-08 01:58N 51°29' E 003°42'0 0.0
2017-Oct-08 01:16N 51°29' E 003°42'0 0.0
2017-Oct-08 00:58N 51°29' E 003°42'0 0.0
2017-Oct-08 00:28N 51°29' E 003°42'0 0.0
2017-Oct-07 23:58N 51°29' E 003°42'0 0.0
2017-Oct-07 23:25N 51°29' E 003°42'0 0.0
2017-Oct-07 22:58N 51°29' E 003°42'0 0.0
2017-Oct-07 22:28N 51°29' E 003°42'0 0.0
2017-Oct-07 21:52N 51°29' E 003°42'0 0.0
2017-Oct-07 21:28N 51°29' E 003°42'0 0.0
2017-Oct-07 20:58N 51°29' E 003°42'0 0.0
2017-Oct-07 20:22N 51°29' E 003°42'0 0.0
2017-Oct-07 19:58N 51°29' E 003°42'0 0.0
2017-Oct-07 19:04N 51°29' E 003°42'0 0.1
2017-Oct-07 18:52N 51°29' E 003°42'0 0.0
2017-Oct-07 18:28N 51°29' E 003°42'0 0.0
2017-Oct-07 17:58N 51°29' E 003°42'0 0.0
2017-Oct-07 17:28N 51°29' E 003°42'0 0.0
2017-Oct-07 16:40N 51°29' E 003°42'0 0.0
2017-Oct-07 16:22N 51°29' E 003°42'0 0.0
2017-Oct-07 15:52N 51°29' E 003°42'0 0.0
2017-Oct-07 15:04N 51°29' E 003°42'0 0.1
2017-Oct-07 14:58N 51°29' E 003°42'0 0.0
2017-Oct-07 14:28N 51°29' E 003°42'0 0.0
2017-Oct-07 13:58N 51°29' E 003°42'0 0.0
2017-Oct-07 12:28N 51°29' E 003°42'0 0.0
2017-Oct-07 11:58N 51°29' E 003°42'0 0.0
2017-Oct-07 11:16N 51°29' E 003°42'0 0.0
2017-Oct-07 10:52N 51°29' E 003°42'0 0.0
2017-Oct-07 10:28N 51°29' E 003°42'0 0.0
2017-Oct-07 09:58N 51°29' E 003°42'0 0.0
2017-Oct-07 09:19N 51°29' E 003°42'0 0.0
2017-Oct-07 08:58N 51°29' E 003°42'0 0.0
2017-Oct-07 08:28N 51°29' E 003°42'0 0.0
2017-Oct-07 07:55N 51°29' E 003°42'0 0.0
2017-Oct-07 07:16N 51°29' E 003°42'0 0.0
2017-Oct-07 06:58N 51°29' E 003°42'0 0.0
2017-Oct-07 06:28N 51°29' E 003°42'0 0.0
2017-Oct-07 05:58N 51°29' E 003°42'0 0.0
2017-Oct-07 05:28N 51°29' E 003°42'0 0.0
2017-Oct-07 04:55N 51°29' E 003°42'0 0.0
2017-Oct-07 04:22N 51°29' E 003°42'0 0.0
2017-Oct-07 03:58N 51°29' E 003°42'0 0.0
2017-Oct-07 02:28N 51°29' E 003°42'0 0.0
2017-Oct-07 01:40N 51°29' E 003°42'0 0.0
2017-Oct-07 01:22N 51°29' E 003°42'0 0.0
2017-Oct-07 01:01N 51°29' E 003°42'0 0.0
2017-Oct-07 00:31N 51°29' E 003°42'0 0.0
2017-Oct-07 00:00N 51°29' E 003°42'0 0.0
2017-Oct-06 23:09N 51°29' E 003°42'0 0.0
2017-Oct-06 22:57N 51°29' E 003°42'0 0.0
2017-Oct-06 22:24N 51°29' E 003°42'0 0.0
2017-Oct-06 20:51N 51°29' E 003°42'0 0.0
2017-Oct-06 20:27N 51°29' E 003°42'0 0.0
2017-Oct-06 19:51N 51°29' E 003°42'0 0.0
2017-Oct-06 19:27N 51°29' E 003°42'0 0.0
2017-Oct-06 18:03N 51°29' E 003°42'0 0.0
2017-Oct-06 17:57N 51°29' E 003°42'0 0.0
2017-Oct-06 17:27N 51°29' E 003°42'0 0.0
2017-Oct-06 17:00N 51°29' E 003°42'0 0.0
2017-Oct-06 16:27N 51°29' E 003°42'0 0.0
2017-Oct-06 15:57N 51°29' E 003°42'0 0.0
2017-Oct-06 15:21N 51°29' E 003°42'0 0.0
2017-Oct-06 14:15N 51°29' E 003°42'0 0.0
2017-Oct-06 13:51N 51°29' E 003°42'0 0.0
2017-Oct-06 13:27N 51°29' E 003°42'0 0.0
2017-Oct-06 12:57N 51°29' E 003°42'0 0.0
2017-Oct-06 12:15N 51°29' E 003°42'0 0.0
2017-Oct-06 11:57N 51°29' E 003°42'0 0.0
2017-Oct-06 11:27N 51°29' E 003°42'0 0.0
2017-Oct-06 10:57N 51°29' E 003°42'0 0.0
2017-Oct-06 10:21N 51°29' E 003°42'0 0.0
2017-Oct-06 09:57N 51°29' E 003°42'0 0.0
2017-Oct-06 09:30N 51°29' E 003°42'0 0.0
2017-Oct-06 08:51N 51°29' E 003°42'0 0.0
2017-Oct-06 08:21N 51°29' E 003°42'0 0.0
2017-Oct-06 08:00N 51°29' E 003°42'0 0.0
2017-Oct-06 07:30N 51°29' E 003°42'0 0.0
2017-Oct-06 06:51N 51°29' E 003°42'0 0.0
2017-Oct-06 06:27N 51°29' E 003°42'0 0.0
2017-Oct-06 05:57N 51°29' E 003°42'0 0.0
2017-Oct-06 05:21N 51°29' E 003°42'0 0.0
2017-Oct-06 04:57N 51°29' E 003°42'0 0.0
2017-Oct-06 04:27N 51°29' E 003°42'0 0.0
2017-Oct-06 03:51N 51°29' E 003°42'0 0.0
2017-Oct-06 03:27N 51°29' E 003°42'  
Track history (hours):
 
Tides and Currents Weather Stations Pressure Air Temp Water Temp Dewpoint Dewpoint Depression Visibility Wind Speed Wind Dir Waves Ship Positions

Princimar Hope

Last reported at 2017-Oct-16 03:10 UTC. Time now 2017-Oct-17 20:45 UTC.
Position N 48°19' W 005°55'.

Length 274 m; draft 9 m.

Type: Ship. MMSI: 538004163.

Date/timePositionNaut miles runAvg speedWind from/ knotsBaromVisibWave heightAir tempDewpointWater temp
2017-Oct-16 03:10N 48°19' W 005°55'1411.5
2017-Oct-16 01:54N 48°34' W 005°56'511.3
2017-Oct-16 01:30N 48°38' W 005°56'510.9
2017-Oct-16 01:00N 48°44' W 005°55'1010.6
2017-Oct-16 00:06N 48°52' W 005°49'2411.8
2017-Oct-15 22:06N 49°06' W 005°19'312.4
2017-Oct-15 21:51N 49°07' W 005°15'512.4
2017-Oct-15 21:29N 49°09' W 005°09'1112.9
2017-Oct-15 20:36N 49°15' W 004°54'313.2
2017-Oct-15 20:22N 49°16' W 004°50'813.3
2017-Oct-15 19:46N 49°21' W 004°40'413.5
2017-Oct-15 19:30N 49°22' W 004°35'3513.0
2017-Oct-15 16:49N 49°40' W 003°48'412.4
2017-Oct-15 16:30N 49°42' W 003°43'612.0
2017-Oct-15 16:00N 49°45' W 003°35'611.9
2017-Oct-15 15:30N 49°48' W 003°27'812.0
2017-Oct-15 14:53N 49°52' W 003°17'1112.1
2017-Oct-15 14:00N 49°57' W 003°02'612.5
2017-Oct-15 13:30N 49°60' W 002°54'612.9
2017-Oct-15 13:00N 50°01' W 002°44'1513.7
2017-Oct-15 11:56N 50°05' W 002°22'1514.8
2017-Oct-15 10:55N 50°09' W 001°59'615.3
2017-Oct-15 10:30N 50°11' W 001°50'1915.2
2017-Oct-15 09:16N 50°16' W 001°22'414.9
2017-Oct-15 09:00N 50°17' W 001°16'714.5
2017-Oct-15 08:30N 50°19' W 001°05'713.7
2017-Oct-15 07:58N 50°21' W 000°54'1112.7
2017-Oct-15 07:08N 50°24' W 000°38'111.0
2017-Oct-15 07:00N 50°25' W 000°36'610.5
2017-Oct-15 06:27N 50°26' W 000°27'510.4
2017-Oct-15 06:00N 50°27' W 000°20'510.4
2017-Oct-15 05:30N 50°28' W 000°12'510.4
2017-Oct-15 05:00N 50°29' W 000°04'510.4
2017-Oct-15 04:30N 50°31' E 000°04'510.6
2017-Oct-15 04:00N 50°32' E 000°12'510.8
2017-Oct-15 03:30N 50°33' E 000°20'611.4
2017-Oct-15 03:00N 50°35' E 000°29'611.8
2017-Oct-15 02:30N 50°37' E 000°37'612.3
2017-Oct-15 02:00N 50°40' E 000°46'612.8
2017-Oct-15 01:30N 50°44' E 000°54'713.1
2017-Oct-15 01:00N 50°47' E 001°03'613.0
2017-Oct-15 00:30N 50°51' E 001°12'612.7
2017-Oct-15 00:00N 50°55' E 001°19'612.6
2017-Oct-14 23:30N 51°00' E 001°25'1211.9
2017-Oct-14 22:30N 51°09' E 001°38'611.1
2017-Oct-14 22:00N 51°13' E 001°45'510.8
2017-Oct-14 21:31N 51°17' E 001°50'510.7
2017-Oct-14 21:00N 51°21' E 001°54'510.8
2017-Oct-14 20:30N 51°26' E 001°58'510.9
2017-Oct-14 20:00N 51°31' E 002°03'611.1
2017-Oct-14 19:30N 51°35' E 002°09'611.4
2017-Oct-14 19:00N 51°39' E 002°15'611.7
2017-Oct-14 18:30N 51°44' E 002°21'1812.4
2017-Oct-14 17:03N 51°57' E 002°40'812.9
2017-Oct-14 16:24N 52°04' E 002°49'612.9
2017-Oct-14 15:57N 52°08' E 002°55'2512.5
2017-Oct-14 13:56N 52°28' E 003°19'612.2
2017-Oct-14 13:27N 52°33' E 003°25'511.9
2017-Oct-14 12:59N 52°37' E 003°31'611.1
2017-Oct-14 12:26N 52°42' E 003°37'510.9
2017-Oct-14 11:57N 52°46' E 003°43'710.7
2017-Oct-14 11:21N 52°51' E 003°49'610.6
2017-Oct-14 10:49N 52°56' E 003°55'3310.6
2017-Oct-14 07:40N 53°21' E 004°32'211.7
2017-Oct-14 07:30N 53°23' E 004°33'611.6
2017-Oct-14 06:59N 53°28' E 004°36'612.0
2017-Oct-14 06:30N 53°30' E 004°46'612.0
2017-Oct-14 06:00N 53°32' E 004°55'611.9
2017-Oct-14 05:28N 53°35' E 005°05'3710.8
2017-Oct-14 02:02N 53°46' E 006°04'1 9.9
2017-Oct-14 01:58N 53°47' E 006°05'5 9.9
2017-Oct-14 01:27N 53°48' E 006°13'6 9.8
2017-Oct-14 00:50N 53°50' E 006°23'6510.5
2017-Oct-13 18:38N 53°45' E 008°13'213.3
2017-Oct-13 18:30N 53°44' E 008°15'612.7
2017-Oct-13 18:00N 53°40' E 008°23'611.6
2017-Oct-13 17:30N 53°36' E 008°31'5 9.2
2017-Oct-13 17:00N 53°32' E 008°34'4 8.4
2017-Oct-13 16:30N 53°28' E 008°30'510.1
2017-Oct-13 16:00N 53°23' E 008°30'3 5.2
2017-Oct-13 15:29N 53°21' E 008°30'0 0.0
2017-Oct-13 14:59N 53°21' E 008°30'0 0.0
2017-Oct-13 14:29N 53°21' E 008°30'0 0.0
2017-Oct-13 13:56N 53°21' E 008°30'0 0.0
2017-Oct-13 13:29N 53°21' E 008°30'0 0.0
2017-Oct-13 12:59N 53°21' E 008°30'0 0.0
2017-Oct-13 12:29N 53°21' E 008°30'0 0.0
2017-Oct-13 11:59N 53°21' E 008°30'0 0.0
2017-Oct-13 11:26N 53°21' E 008°30'0 0.0
2017-Oct-13 10:59N 53°21' E 008°30'0 0.0
2017-Oct-13 10:26N 53°21' E 008°30'0 0.0
2017-Oct-13 09:59N 53°21' E 008°30'0 0.0
2017-Oct-13 09:29N 53°21' E 008°30'0 0.0
2017-Oct-13 08:59N 53°21' E 008°30'0 0.0
2017-Oct-13 08:26N 53°21' E 008°30'0 0.0
2017-Oct-13 07:56N 53°21' E 008°30'0 0.1
2017-Oct-13 07:26N 53°21' E 008°30'0 0.0
2017-Oct-13 06:56N 53°21' E 008°30'0 0.0
2017-Oct-13 06:29N 53°21' E 008°30'0 0.0
2017-Oct-13 05:56N 53°21' E 008°30'0 0.0
2017-Oct-13 05:29N 53°21' E 008°30'0 0.0
2017-Oct-13 04:50N 53°21' E 008°30'0 0.0
2017-Oct-13 04:26N 53°21' E 008°30'0 0.0
2017-Oct-13 03:59N 53°21' E 008°30'0 0.0
2017-Oct-13 03:29N 53°21' E 008°30'0 0.0
2017-Oct-13 02:53N 53°21' E 008°30'0 0.0
2017-Oct-13 02:29N 53°21' E 008°30'0 0.0
2017-Oct-13 01:56N 53°21' E 008°30'0 0.0
2017-Oct-13 01:29N 53°21' E 008°30'0 0.0
2017-Oct-13 00:56N 53°21' E 008°30'0 0.0
2017-Oct-13 00:26N 53°21' E 008°30'0 0.0
2017-Oct-12 23:59N 53°21' E 008°30'0 0.0
2017-Oct-12 23:29N 53°21' E 008°30'0 0.1
2017-Oct-12 22:59N 53°21' E 008°30'0 0.0
2017-Oct-12 22:29N 53°21' E 008°30'0 0.0
2017-Oct-12 21:56N 53°21' E 008°30'0 0.0
2017-Oct-12 21:29N 53°21' E 008°30'0 0.0
2017-Oct-12 20:59N 53°21' E 008°30'0 0.0
2017-Oct-12 20:29N 53°21' E 008°30'0 0.0
2017-Oct-12 19:59N 53°21' E 008°30'0 0.0
2017-Oct-12 19:29N 53°21' E 008°30'0 0.0
2017-Oct-12 18:59N 53°21' E 008°30'0 0.0
2017-Oct-12 18:29N 53°21' E 008°30'0 0.0
2017-Oct-12 17:59N 53°21' E 008°30'0 0.0
2017-Oct-12 17:29N 53°21' E 008°30'0 0.0
2017-Oct-12 16:59N 53°21' E 008°30'0 0.0
2017-Oct-12 16:29N 53°21' E 008°30'0 0.0
2017-Oct-12 15:59N 53°21' E 008°30'0 0.0
2017-Oct-12 15:29N 53°21' E 008°30'0 0.0
2017-Oct-12 14:59N 53°21' E 008°30'0 0.0
2017-Oct-12 14:29N 53°21' E 008°30'0 0.0
2017-Oct-12 13:59N 53°21' E 008°30'0 0.0
2017-Oct-12 13:29N 53°21' E 008°30'0 0.0
2017-Oct-12 12:59N 53°21' E 008°30'0 0.0
2017-Oct-12 12:29N 53°21' E 008°30'0 0.0
2017-Oct-12 11:59N 53°21' E 008°30'0 0.0
2017-Oct-12 11:29N 53°21' E 008°30'0 0.0
2017-Oct-12 10:59N 53°21' E 008°30'0 0.0
2017-Oct-12 10:29N 53°21' E 008°30'0 0.0
2017-Oct-12 09:59N 53°21' E 008°30'0 0.0
2017-Oct-12 09:29N 53°21' E 008°30'0 0.0
2017-Oct-12 08:59N 53°21' E 008°30'0 0.0
2017-Oct-12 08:29N 53°21' E 008°30'0 0.0
2017-Oct-12 07:59N 53°21' E 008°30'0 0.0
2017-Oct-12 07:29N 53°21' E 008°30'0 0.0
2017-Oct-12 06:59N 53°21' E 008°30'0 0.0
2017-Oct-12 06:29N 53°21' E 008°30'0 0.0
2017-Oct-12 05:59N 53°21' E 008°30'0 0.0
2017-Oct-12 05:29N 53°21' E 008°30'0 0.0
2017-Oct-12 04:58N 53°21' E 008°30'0 0.0
2017-Oct-12 04:29N 53°21' E 008°30'0 0.0
2017-Oct-12 03:58N 53°21' E 008°30'0 0.0
2017-Oct-12 03:29N 53°21' E 008°30'0 0.0
2017-Oct-12 02:59N 53°21' E 008°30'0 0.0
2017-Oct-12 02:28N 53°21' E 008°30'0 0.0
2017-Oct-12 01:58N 53°21' E 008°30'0 0.0
2017-Oct-12 01:28N 53°21' E 008°30'0 0.0
2017-Oct-12 00:58N 53°21' E 008°30'0 0.0
2017-Oct-12 00:28N 53°21' E 008°30'0 0.0
2017-Oct-11 23:58N 53°21' E 008°30'0 0.0
2017-Oct-11 23:28N 53°21' E 008°30'0 0.0
2017-Oct-11 22:58N 53°21' E 008°30'0 0.0
2017-Oct-11 22:28N 53°21' E 008°30'0 0.0
2017-Oct-11 21:58N 53°21' E 008°30'0 0.0
2017-Oct-11 21:28N 53°21' E 008°30'0 0.0
2017-Oct-11 20:58N 53°21' E 008°30'0 0.0
2017-Oct-11 20:28N 53°21' E 008°30'0 0.0
2017-Oct-11 19:58N 53°21' E 008°30'0 0.0
2017-Oct-11 19:28N 53°21' E 008°30'0 0.0
2017-Oct-11 18:58N 53°21' E 008°30'0 0.0
2017-Oct-11 18:28N 53°21' E 008°30'0 0.0
2017-Oct-11 17:58N 53°21' E 008°30'0 0.0
2017-Oct-11 17:28N 53°21' E 008°30'0 0.0
2017-Oct-11 16:58N 53°21' E 008°30'145 8.2
2017-Oct-10 23:14N 53°07' E 004°28'312.4
2017-Oct-10 23:00N 53°04' E 004°26'612.4
2017-Oct-10 22:30N 52°59' E 004°20'812.4
2017-Oct-10 21:51N 52°51' E 004°15'512.7
2017-Oct-10 21:26N 52°47' E 004°11'913.0
2017-Oct-10 20:43N 52°39' E 004°02'313.1
2017-Oct-10 20:30N 52°37' E 003°59'713.2
2017-Oct-10 20:00N 52°33' E 003°51'813.4
2017-Oct-10 19:23N 52°27' E 003°40'2413.5
2017-Oct-10 17:37N 52°06' E 003°25'213.7
2017-Oct-10 17:26N 52°03' E 003°25'913.6
2017-Oct-10 16:48N 51°54' E 003°23'514.1
2017-Oct-10 16:27N 51°50' E 003°19'612.9
2017-Oct-10 16:00N 51°44' E 003°18'612.3
2017-Oct-10 15:29N 51°38' E 003°21'612.8
2017-Oct-10 15:00N 51°33' E 003°26'10 9.7
2017-Oct-10 14:00N 51°26' E 003°37'4 7.5
2017-Oct-10 13:30N 51°28' E 003°43'1 1.0
2017-Oct-10 13:00N 51°29' E 003°42'0 0.0
2017-Oct-10 12:30N 51°29' E 003°42'0 0.0
2017-Oct-10 12:00N 51°29' E 003°42'0 0.0
2017-Oct-10 11:30N 51°29' E 003°42'0 0.0
2017-Oct-10 10:54N 51°29' E 003°42'0 0.0
2017-Oct-10 10:30N 51°29' E 003°42'0 0.0
2017-Oct-10 10:00N 51°29' E 003°42'0 0.0
2017-Oct-10 09:30N 51°29' E 003°42'0 0.0
2017-Oct-10 09:00N 51°29' E 003°42'0 0.0
2017-Oct-10 08:30N 51°29' E 003°42'0 0.0
2017-Oct-10 07:57N 51°29' E 003°42'0 0.0
2017-Oct-10 07:30N 51°29' E 003°42'0 0.0
2017-Oct-10 07:00N 51°29' E 003°42'0 0.0
2017-Oct-10 06:30N 51°29' E 003°42'0 0.0
2017-Oct-10 05:48N 51°29' E 003°42'0 0.0
2017-Oct-10 05:30N 51°29' E 003°42'0 0.0
2017-Oct-10 05:00N 51°29' E 003°42'0 0.0
2017-Oct-10 04:30N 51°29' E 003°42'0 0.0
2017-Oct-10 04:00N 51°29' E 003°42'0 0.0
2017-Oct-10 03:30N 51°29' E 003°42'0 0.0
2017-Oct-10 02:57N 51°29' E 003°42'0 0.0
2017-Oct-10 02:30N 51°29' E 003°42'0 0.0
2017-Oct-10 01:59N 51°29' E 003°42'0 0.0
2017-Oct-10 00:29N 51°29' E 003°42'0 0.0
2017-Oct-09 23:56N 51°29' E 003°42'0 0.0
2017-Oct-09 23:23N 51°29' E 003°42'0 0.0
2017-Oct-09 22:59N 51°29' E 003°42'0 0.1
2017-Oct-09 22:23N 51°29' E 003°42'0 0.1
2017-Oct-09 21:53N 51°29' E 003°42'0 0.0
2017-Oct-09 21:23N 51°29' E 003°42'0 0.0
2017-Oct-09 20:59N 51°29' E 003°42'0 0.0
2017-Oct-09 20:23N 51°29' E 003°42'0 0.0
2017-Oct-09 19:59N 51°29' E 003°42'0 0.0
2017-Oct-09 19:26N 51°29' E 003°42'0 0.0
2017-Oct-09 18:47N 51°29' E 003°42'0 0.0
2017-Oct-09 18:29N 51°29' E 003°42'0 0.0
2017-Oct-09 17:44N 51°29' E 003°42'0 0.0
2017-Oct-09 17:29N 51°29' E 003°42'0 0.0
2017-Oct-09 16:59N 51°29' E 003°42'0 0.0
2017-Oct-09 16:23N 51°29' E 003°42'0 0.0
2017-Oct-09 15:59N 51°29' E 003°42'0 0.0
2017-Oct-09 15:29N 51°29' E 003°42'0 0.0
2017-Oct-09 14:59N 51°29' E 003°42'0 0.0
2017-Oct-09 14:23N 51°29' E 003°42'0 0.0
2017-Oct-09 13:38N 51°29' E 003°42'0 0.0
2017-Oct-09 13:26N 51°29' E 003°42'0 0.0
2017-Oct-09 12:47N 51°29' E 003°42'0 0.0
2017-Oct-09 12:29N 51°29' E 003°42'0 0.0
2017-Oct-09 11:59N 51°29' E 003°42'0 0.0
2017-Oct-09 11:23N 51°29' E 003°42'0 0.0
2017-Oct-09 10:53N 51°29' E 003°42'0 0.0
2017-Oct-09 10:29N 51°29' E 003°42'0 0.0
2017-Oct-09 09:59N 51°29' E 003°42'0 0.0
2017-Oct-09 09:29N 51°29' E 003°42'0 0.0
2017-Oct-09 08:59N 51°29' E 003°42'0 0.0
2017-Oct-09 07:56N 51°29' E 003°42'0 0.0
2017-Oct-09 07:23N 51°29' E 003°42'0 0.0
2017-Oct-09 06:56N 51°29' E 003°42'0 0.0
2017-Oct-09 06:23N 51°29' E 003°42'0 0.0
2017-Oct-09 05:53N 51°29' E 003°42'0 0.0
2017-Oct-09 05:05N 51°29' E 003°42'0 0.0
2017-Oct-09 04:47N 51°29' E 003°42'0 0.0
2017-Oct-09 04:29N 51°29' E 003°42'0 0.0
2017-Oct-09 03:47N 51°29' E 003°42'0 0.0
2017-Oct-09 03:29N 51°29' E 003°42'0 0.0
2017-Oct-09 02:47N 51°29' E 003°42'0 0.0
2017-Oct-09 02:17N 51°29' E 003°42'0 0.0
2017-Oct-09 01:59N 51°29' E 003°42'0 0.0
2017-Oct-09 01:29N 51°29' E 003°42'0 0.0
2017-Oct-09 00:59N 51°29' E 003°42'0 0.0
2017-Oct-09 00:29N 51°29' E 003°42'0 0.0
2017-Oct-08 23:47N 51°29' E 003°42'0 0.0
2017-Oct-08 23:29N 51°29' E 003°42'0 0.0
2017-Oct-08 22:59N 51°29' E 003°42'0 0.0
2017-Oct-08 22:23N 51°29' E 003°42'0 0.0
2017-Oct-08 21:59N 51°29' E 003°42'0 0.0
2017-Oct-08 21:23N 51°29' E 003°42'0 0.0
2017-Oct-08 20:59N 51°29' E 003°42'0 0.0
2017-Oct-08 20:29N 51°29' E 003°42'0 0.0
2017-Oct-08 19:53N 51°29' E 003°42'0 0.0
2017-Oct-08 19:26N 51°29' E 003°42'0 0.0
2017-Oct-08 18:53N 51°29' E 003°42'0 0.0
2017-Oct-08 18:23N 51°29' E 003°42'0 0.0
2017-Oct-08 17:59N 51°29' E 003°42'0 0.0
2017-Oct-08 17:29N 51°29' E 003°42'0 0.0
2017-Oct-08 16:59N 51°29' E 003°42'0 0.0
2017-Oct-08 16:17N 51°29' E 003°42'0 0.0
2017-Oct-08 15:53N 51°29' E 003°42'0 0.0
2017-Oct-08 15:29N 51°29' E 003°42'0 0.0
2017-Oct-08 14:53N 51°29' E 003°42'0 0.0
2017-Oct-08 14:23N 51°29' E 003°42'0 0.0
2017-Oct-08 13:59N 51°29' E 003°42'0 0.0
2017-Oct-08 13:23N 51°29' E 003°42'0 0.0
2017-Oct-08 12:58N 51°29' E 003°42'0 0.0
2017-Oct-08 12:28N 51°29' E 003°42'0 0.0
2017-Oct-08 11:58N 51°29' E 003°42'0 0.0
2017-Oct-08 11:28N 51°29' E 003°42'0 0.0
2017-Oct-08 10:58N 51°29' E 003°42'0 0.0
2017-Oct-08 10:28N 51°29' E 003°42'0 0.0
2017-Oct-08 09:58N 51°29' E 003°42'0 0.0
2017-Oct-08 09:28N 51°29' E 003°42'0 0.0
2017-Oct-08 08:58N 51°29' E 003°42'0 0.0
2017-Oct-08 08:22N 51°29' E 003°42'0 0.0
2017-Oct-08 07:58N 51°29' E 003°42'0 0.0
2017-Oct-08 07:28N 51°29' E 003°42'0 0.0
2017-Oct-08 06:52N 51°29' E 003°42'0 0.0
2017-Oct-08 06:10N 51°29' E 003°42'0 0.0
2017-Oct-08 05:58N 51°29' E 003°42'0 0.0
2017-Oct-08 05:16N 51°29' E 003°42'0 0.0
2017-Oct-08 04:52N 51°29' E 003°42'0 0.0
2017-Oct-08 04:10N 51°29' E 003°42'0 0.0
2017-Oct-08 03:58N 51°29' E 003°42'0 0.0
2017-Oct-08 03:28N 51°29' E 003°42'0 0.0
2017-Oct-08 02:58N 51°29' E 003°42'0 0.0
2017-Oct-08 02:28N 51°29' E 003°42'0 0.0
2017-Oct-08 01:58N 51°29' E 003°42'0 0.0
2017-Oct-08 01:16N 51°29' E 003°42'0 0.0
2017-Oct-08 00:58N 51°29' E 003°42'0 0.0
2017-Oct-08 00:28N 51°29' E 003°42'0 0.0
2017-Oct-07 23:58N 51°29' E 003°42'0 0.0
2017-Oct-07 23:25N 51°29' E 003°42'0 0.0
2017-Oct-07 22:58N 51°29' E 003°42'0 0.0
2017-Oct-07 22:28N 51°29' E 003°42'0 0.0
2017-Oct-07 21:52N 51°29' E 003°42'0 0.0
2017-Oct-07 21:28N 51°29' E 003°42'0 0.0
2017-Oct-07 20:58N 51°29' E 003°42'0 0.0
2017-Oct-07 20:22N 51°29' E 003°42'0 0.0
2017-Oct-07 19:58N 51°29' E 003°42'0 0.0
2017-Oct-07 19:04N 51°29' E 003°42'0 0.1
2017-Oct-07 18:52N 51°29' E 003°42'0 0.0
2017-Oct-07 18:28N 51°29' E 003°42'0 0.0
2017-Oct-07 17:58N 51°29' E 003°42'0 0.0
2017-Oct-07 17:28N 51°29' E 003°42'0 0.0
2017-Oct-07 16:40N 51°29' E 003°42'0 0.0
2017-Oct-07 16:22N 51°29' E 003°42'0 0.0
2017-Oct-07 15:52N 51°29' E 003°42'0 0.0
2017-Oct-07 15:04N 51°29' E 003°42'0 0.1
2017-Oct-07 14:58N 51°29' E 003°42'0 0.0
2017-Oct-07 14:28N 51°29' E 003°42'0 0.0
2017-Oct-07 13:58N 51°29' E 003°42'0 0.0
2017-Oct-07 12:28N 51°29' E 003°42'0 0.0
2017-Oct-07 11:58N 51°29' E 003°42'0 0.0
2017-Oct-07 11:16N 51°29' E 003°42'0 0.0
2017-Oct-07 10:52N 51°29' E 003°42'0 0.0
2017-Oct-07 10:28N 51°29' E 003°42'0 0.0
2017-Oct-07 09:58N 51°29' E 003°42'0 0.0
2017-Oct-07 09:19N 51°29' E 003°42'0 0.0
2017-Oct-07 08:58N 51°29' E 003°42'0 0.0
2017-Oct-07 08:28N 51°29' E 003°42'0 0.0
2017-Oct-07 07:55N 51°29' E 003°42'0 0.0
2017-Oct-07 07:16N 51°29' E 003°42'0 0.0
2017-Oct-07 06:58N 51°29' E 003°42'0 0.0
2017-Oct-07 06:28N 51°29' E 003°42'0 0.0
2017-Oct-07 05:58N 51°29' E 003°42'0 0.0
2017-Oct-07 05:28N 51°29' E 003°42'0 0.0
2017-Oct-07 04:55N 51°29' E 003°42'0 0.0
2017-Oct-07 04:22N 51°29' E 003°42'0 0.0
2017-Oct-07 03:58N 51°29' E 003°42'0 0.0
2017-Oct-07 02:28N 51°29' E 003°42'0 0.0
2017-Oct-07 01:40N 51°29' E 003°42'0 0.0
2017-Oct-07 01:22N 51°29' E 003°42'0 0.0
2017-Oct-07 01:01N 51°29' E 003°42'0 0.0
2017-Oct-07 00:31N 51°29' E 003°42'0 0.0
2017-Oct-07 00:00N 51°29' E 003°42'0 0.0
2017-Oct-06 23:09N 51°29' E 003°42'0 0.0
2017-Oct-06 22:57N 51°29' E 003°42'0 0.0
2017-Oct-06 22:24N 51°29' E 003°42'0 0.0
2017-Oct-06 20:51N 51°29' E 003°42'0 0.0
2017-Oct-06 20:27N 51°29' E 003°42'0 0.0
2017-Oct-06 19:51N 51°29' E 003°42'0 0.0
2017-Oct-06 19:27N 51°29' E 003°42'0 0.0
2017-Oct-06 18:03N 51°29' E 003°42'0 0.0
2017-Oct-06 17:57N 51°29' E 003°42'0 0.0
2017-Oct-06 17:27N 51°29' E 003°42'0 0.0
2017-Oct-06 17:00N 51°29' E 003°42'0 0.0
2017-Oct-06 16:27N 51°29' E 003°42'0 0.0
2017-Oct-06 15:57N 51°29' E 003°42'0 0.0
2017-Oct-06 15:21N 51°29' E 003°42'0 0.0
2017-Oct-06 14:15N 51°29' E 003°42'0 0.0
2017-Oct-06 13:51N 51°29' E 003°42'0 0.0
2017-Oct-06 13:27N 51°29' E 003°42'0 0.0
2017-Oct-06 12:57N 51°29' E 003°42'0 0.0
2017-Oct-06 12:15N 51°29' E 003°42'0 0.0
2017-Oct-06 11:57N 51°29' E 003°42'0 0.0
2017-Oct-06 11:27N 51°29' E 003°42'0 0.0
2017-Oct-06 10:57N 51°29' E 003°42'0 0.0
2017-Oct-06 10:21N 51°29' E 003°42'0 0.0
2017-Oct-06 09:57N 51°29' E 003°42'0 0.0
2017-Oct-06 09:30N 51°29' E 003°42'0 0.0
2017-Oct-06 08:51N 51°29' E 003°42'0 0.0
2017-Oct-06 08:21N 51°29' E 003°42'0 0.0
2017-Oct-06 08:00N 51°29' E 003°42'0 0.0
2017-Oct-06 07:30N 51°29' E 003°42'0 0.0
2017-Oct-06 06:51N 51°29' E 003°42'0 0.0
2017-Oct-06 06:27N 51°29' E 003°42'0 0.0
2017-Oct-06 05:57N 51°29' E 003°42'0 0.0
2017-Oct-06 05:21N 51°29' E 003°42'0 0.0
2017-Oct-06 04:57N 51°29' E 003°42'0 0.0
2017-Oct-06 04:27N 51°29' E 003°42'0 0.0
2017-Oct-06 03:51N 51°29' E 003°42'0 0.0
2017-Oct-06 03:27N 51°29' E 003°42'  

Dump ship's entire track history